createdAt,value
2023-05-23T00:04:58.386Z,20.25
2023-05-23T00:10:01.361Z,19.73
2023-05-23T00:15:08.682Z,22.80
2023-05-23T00:20:12.421Z,19.10
2023-05-23T00:25:15.216Z,18.95
2023-05-23T00:30:19.569Z,18.05
2023-05-23T00:35:23.650Z,15.38
2023-05-23T00:40:27.377Z,13.82
2023-05-23T00:45:31.529Z,14.23
2023-05-23T00:50:36.186Z,14.73
2023-05-23T00:55:39.804Z,13.43
2023-05-23T01:00:44.983Z,14.55
2023-05-23T01:05:47.959Z,17.23
2023-05-23T01:10:51.305Z,16.10
2023-05-23T01:16:04.515Z,16.55
2023-05-23T01:21:11.159Z,19.40
2023-05-23T01:26:34.994Z,17.10
2023-05-23T01:31:44.158Z,19.83
2023-05-23T01:36:50.738Z,23.30
2023-05-23T01:41:54.709Z,32.85
2023-05-23T01:46:59.349Z,38.45
2023-05-23T01:52:03.130Z,38.45
2023-05-23T01:57:07.238Z,43.45
2023-05-23T02:02:12.266Z,48.50
2023-05-23T02:07:15.090Z,55.33
2023-05-23T02:12:17.892Z,62.47
2023-05-23T02:17:24.233Z,63.20
2023-05-23T02:22:27.438Z,59.80
2023-05-23T02:27:30.243Z,64.78
2023-05-23T02:32:35.076Z,63.88
2023-05-23T02:37:38.181Z,67.20
2023-05-23T02:42:41.017Z,63.15
2023-05-23T02:47:45.767Z,58.35
2023-05-23T02:52:49.030Z,63.67
2023-05-23T02:57:56.857Z,60.90
2023-05-23T03:03:01.739Z,62.13
2023-05-23T03:08:05.351Z,60.97
2023-05-23T03:13:08.340Z,58.58
2023-05-23T03:18:13.171Z,63.50
2023-05-23T03:23:15.993Z,55.83
2023-05-23T03:28:21.009Z,59.00
2023-05-23T03:33:25.164Z,57.95
2023-05-23T03:38:29.083Z,56.53
2023-05-23T03:43:31.851Z,48.97
2023-05-23T03:48:37.771Z,46.60
2023-05-23T03:53:40.897Z,50.50
2023-05-23T03:58:43.677Z,49.70
2023-05-23T04:03:52.758Z,46.35
2023-05-23T04:08:56.216Z,48.88
2023-05-23T04:13:59.206Z,47.20
2023-05-23T04:19:05.888Z,44.55
2023-05-23T04:24:09.182Z,44.40
2023-05-23T04:29:12.631Z,49.25
2023-05-23T04:34:17.225Z,42.42
2023-05-23T04:39:20.536Z,45.70
2023-05-23T04:44:43.304Z,45.20
2023-05-23T04:49:54.020Z,52.30
2023-05-23T04:54:57.235Z,55.75
2023-05-23T05:00:01.117Z,53.58
2023-05-23T05:05:07.252Z,60.33
2023-05-23T05:10:16.829Z,51.63
2023-05-23T05:15:20.592Z,55.45
2023-05-23T05:20:29.567Z,65.25
2023-05-23T05:25:35.825Z,63.13
2023-05-23T05:30:39.282Z,63.95
2023-05-23T05:35:43.946Z,70.70
2023-05-23T05:40:47.452Z,63.88
2023-05-23T05:45:51.022Z,63.33
2023-05-23T05:50:55.652Z,61.47
2023-05-23T05:55:58.559Z,59.08
2023-05-23T06:01:01.525Z,52.53
2023-05-23T06:06:06.880Z,59.40
2023-05-23T06:11:09.932Z,57.63
2023-05-23T06:16:13.036Z,50.65
2023-05-23T06:21:18.095Z,63.33
2023-05-23T06:31:28.571Z,65.55
2023-05-23T06:36:32.800Z,70.90
2023-05-23T06:41:35.647Z,52.17
2023-05-23T06:46:40.357Z,33.88
2023-05-23T06:51:45.325Z,34.13
2023-05-23T06:56:48.487Z,39.42
2023-05-23T07:01:51.894Z,40.10
2023-05-23T07:06:56.139Z,36.90
2023-05-23T07:11:59.173Z,26.17
2023-05-23T07:17:02.557Z,21.05
2023-05-23T07:22:06.926Z,18.17
2023-05-23T07:27:12.493Z,15.63
2023-05-23T07:32:15.662Z,14.95
2023-05-23T07:37:21.165Z,15.70
2023-05-23T07:42:24.220Z,13.70
2023-05-23T07:47:27.694Z,16.17
2023-05-23T07:52:32.313Z,10.60
2023-05-23T07:57:35.877Z,11.07
2023-05-23T08:07:43.221Z,11.38
2023-05-23T08:12:46.793Z,8.18
2023-05-23T08:17:56.887Z,7.80
2023-05-23T08:23:02.634Z,9.45
2023-05-23T08:28:05.980Z,8.65
2023-05-23T08:33:24.246Z,9.02
2023-05-23T08:38:31.932Z,9.75
2023-05-23T08:43:46.302Z,10.32
2023-05-23T08:48:56.695Z,13.48
2023-05-23T08:54:03.880Z,10.95
2023-05-23T08:59:07.031Z,7.00
2023-05-23T09:04:12.798Z,10.45
2023-05-23T09:09:36.487Z,13.02
2023-05-23T09:14:42.305Z,13.73
2023-05-23T09:19:46.988Z,13.63
2023-05-23T09:24:59.932Z,12.63
2023-05-23T09:30:08.024Z,14.98
2023-05-23T09:35:12.451Z,12.10
2023-05-23T09:40:17.789Z,11.25
2023-05-23T09:45:32.068Z,10.60
2023-05-23T09:50:36.824Z,12.68
2023-05-23T09:55:42.270Z,7.28
2023-05-23T10:00:47.493Z,7.07
2023-05-23T10:05:52.754Z,8.15
2023-05-23T10:11:33.991Z,10.45
2023-05-23T10:16:48.671Z,7.28
2023-05-23T10:21:56.339Z,11.63
2023-05-23T10:26:59.524Z,9.55
2023-05-23T10:32:05.660Z,9.05
2023-05-23T10:37:11.221Z,8.73
2023-05-23T10:42:19.242Z,9.52
2023-05-23T10:47:29.440Z,7.97
2023-05-23T10:52:40.955Z,5.95
2023-05-23T10:57:43.932Z,6.38
2023-05-23T11:03:01.121Z,7.97
2023-05-23T11:08:13.772Z,9.82
2023-05-23T11:13:16.676Z,10.25
2023-05-23T11:18:27.618Z,8.77
2023-05-23T11:23:41.945Z,13.23
2023-05-23T11:28:57.215Z,12.30
2023-05-23T11:34:02.687Z,11.10
2023-05-23T11:39:05.724Z,7.90
2023-05-23T11:44:14.695Z,10.88
2023-05-23T11:49:18.818Z,10.85
2023-05-23T11:54:24.336Z,11.73
2023-05-23T11:59:28.361Z,12.80
2023-05-23T12:04:32.678Z,9.80
2023-05-23T12:09:43.385Z,12.13
2023-05-23T12:14:46.523Z,12.15
2023-05-23T12:19:51.659Z,11.70
2023-05-23T12:24:55.383Z,12.30
2023-05-23T12:30:09.518Z,9.70
2023-05-23T12:35:15.941Z,15.38
2023-05-23T12:40:20.201Z,9.77
2023-05-23T12:45:25.185Z,11.65
2023-05-23T12:50:31.324Z,13.73
2023-05-23T12:55:34.253Z,8.82
2023-05-23T13:00:37.783Z,9.73
2023-05-23T13:05:42.203Z,12.95
2023-05-23T13:10:45.218Z,12.02
2023-05-23T13:15:50.529Z,10.15
2023-05-23T13:20:58.164Z,13.10
2023-05-23T13:26:00.950Z,14.55
2023-05-23T13:31:04.941Z,10.70
2023-05-23T13:36:09.389Z,6.93
2023-05-23T13:41:12.184Z,9.57
2023-05-23T13:46:16.221Z,14.40
2023-05-23T13:51:20.596Z,10.90
2023-05-23T13:56:24.378Z,10.68
2023-05-23T14:01:27.344Z,14.43
2023-05-23T14:06:32.902Z,9.52
2023-05-23T14:11:36.025Z,14.07
2023-05-23T14:16:38.921Z,14.20
2023-05-23T14:21:44.895Z,12.40
2023-05-23T14:26:47.983Z,13.70
2023-05-23T14:31:51.102Z,15.80
2023-05-23T14:36:55.731Z,16.20
2023-05-23T14:41:58.581Z,11.23
2023-05-23T14:47:01.630Z,12.02
2023-05-23T14:52:06.176Z,15.85
2023-05-23T14:57:09.386Z,11.93
2023-05-23T15:02:12.434Z,9.68
2023-05-23T15:07:18.255Z,13.70
2023-05-23T15:12:21.121Z,10.02
2023-05-23T15:17:26.569Z,19.00
2023-05-23T15:22:38.575Z,13.32
2023-05-23T15:27:45.190Z,11.77
2023-05-23T15:32:50.611Z,16.75
2023-05-23T15:37:54.884Z,12.48
2023-05-23T15:42:57.828Z,14.43
2023-05-23T15:48:00.768Z,15.70
2023-05-23T15:53:05.234Z,11.15
2023-05-23T15:58:09.429Z,12.20
2023-05-23T16:03:12.725Z,12.07
2023-05-23T16:08:18.134Z,11.98
2023-05-23T16:13:20.979Z,14.10
2023-05-23T16:18:24.197Z,11.43
2023-05-23T16:23:28.737Z,13.23
2023-05-23T16:28:31.603Z,14.80
2023-05-23T16:33:34.489Z,14.32
2023-05-23T16:38:38.836Z,15.48
2023-05-23T16:43:42.827Z,14.90
2023-05-23T16:48:45.982Z,19.85
2023-05-23T16:53:50.353Z,12.07
2023-05-23T16:58:53.274Z,14.48
2023-05-23T17:03:57.033Z,14.13
2023-05-23T17:09:01.632Z,11.73
2023-05-23T17:14:04.631Z,10.40
2023-05-23T17:19:07.856Z,14.48
2023-05-23T17:24:12.229Z,18.55
2023-05-23T17:29:17.186Z,12.95
2023-05-23T17:34:20.258Z,14.52
2023-05-23T17:39:25.220Z,14.02
2023-05-23T17:44:28.348Z,17.83
2023-05-23T17:49:31.321Z,12.25
2023-05-23T17:55:00.972Z,18.25
2023-05-23T18:00:04.074Z,12.48
2023-05-23T18:05:17.817Z,16.52
2023-05-23T18:10:22.291Z,14.90
2023-05-23T18:15:25.829Z,18.13
2023-05-23T18:20:28.816Z,11.48
2023-05-23T18:25:33.474Z,16.92
2023-05-23T18:30:36.723Z,14.65
2023-05-23T18:35:39.759Z,14.25
2023-05-23T18:40:44.496Z,16.10
2023-05-23T18:45:47.673Z,13.82
2023-05-23T18:50:51.281Z,16.45
2023-05-23T18:55:56.371Z,16.60
2023-05-23T19:01:03.708Z,17.25
2023-05-23T19:06:10.751Z,10.30
2023-05-23T19:12:07.529Z,18.60
2023-05-23T19:17:14.008Z,9.55
2023-05-23T19:22:55.022Z,15.20
2023-05-23T19:34:48.136Z,23.27
2023-05-23T19:39:52.576Z,15.02
2023-05-23T19:44:55.416Z,11.70
2023-05-23T19:49:58.410Z,18.08
2023-05-23T19:55:03.792Z,17.98
2023-05-23T20:00:09.789Z,18.33
2023-05-23T20:05:16.431Z,18.88
2023-05-23T20:10:21.019Z,22.30
2023-05-23T20:15:38.060Z,16.45
2023-05-23T20:20:42.847Z,14.60
2023-05-23T20:25:47.323Z,16.75
2023-05-23T20:30:50.333Z,19.73
2023-05-23T20:35:54.001Z,18.92
2023-05-23T20:41:01.505Z,21.88
2023-05-23T20:46:06.319Z,17.67
2023-05-23T20:51:09.451Z,18.85
2023-05-23T20:56:14.206Z,32.30
2023-05-23T21:01:17.186Z,28.13
2023-05-23T21:06:20.071Z,25.52
2023-05-23T21:11:24.855Z,21.67
2023-05-23T21:16:27.715Z,18.38
2023-05-23T21:21:30.490Z,22.10
2023-05-23T21:26:34.669Z,22.63
2023-05-23T21:31:41.951Z,18.75
2023-05-23T21:36:44.958Z,22.07
2023-05-23T21:41:49.114Z,25.30
2023-05-23T21:46:51.943Z,22.90
2023-05-23T21:51:55.105Z,24.42
2023-05-23T21:56:59.270Z,23.25
2023-05-23T22:02:02.145Z,21.13
2023-05-23T22:07:05.580Z,20.15
2023-05-23T22:12:10.535Z,23.08
2023-05-23T22:17:14.223Z,25.20
2023-05-23T22:22:17.032Z,19.67
2023-05-23T22:27:21.314Z,19.20
2023-05-23T22:32:24.611Z,24.27
2023-05-23T22:37:27.386Z,26.10
2023-05-23T22:42:31.507Z,23.02
2023-05-23T22:47:34.491Z,22.42
2023-05-23T22:52:38.562Z,23.33
2023-05-23T22:57:42.727Z,26.95
2023-05-23T23:02:46.646Z,19.27
2023-05-23T23:07:49.605Z,29.73
2023-05-23T23:12:54.069Z,22.02
2023-05-23T23:17:57.272Z,23.85
2023-05-23T23:23:00.143Z,24.40
2023-05-23T23:28:04.589Z,22.00
2023-05-23T23:33:07.370Z,31.40
2023-05-23T23:38:10.306Z,26.45
2023-05-23T23:43:14.518Z,18.33
2023-05-23T23:48:17.263Z,22.40
2023-05-23T23:53:21.379Z,22.30
2023-05-23T23:58:25.566Z,25.92
